WetterOnline ( https://www.wetteronline.at )

Wetter aktuell Itzehoe

Aktuelles Wetter: Itzehoe (26m)

6-stündlich | Neueste Meldungen
Ortszeit Temperatur Wetter
So, 03.03. 7:00 6.0° C leicht bewölkt
So, 03.03. 1:00 7.2° C wolkig
Sa, 02.03. 19:00 9.7° C bedeckt
Sa, 02.03. 13:00 11.2° C bedeckt
Sa, 02.03. 7:00 7.0° C bedeckt
Sa, 02.03. 1:00 7.8° C bedeckt
Fr, 01.03. 19:00 8.4° C bedeckt
Fr, 01.03. 13:00 9.2° C bewölkt
Ortszeit Temperatur Wetter
So, 03.03. 11:00 10.0° C leicht bewölkt
So, 03.03. 10:50 10.0° C leicht bewölkt
So, 03.03. 10:40 9.8° C bewölkt
So, 03.03. 10:30 9.3° C wolkig
So, 03.03. 10:20 9.3° C wolkig
So, 03.03. 10:10 8.9° C bewölkt
So, 03.03. 10:00 8.3° C wolkig
So, 03.03. 9:30 7.4° C leicht bewölkt
So, 03.03. 9:00 6.3° C wolkenlos
So, 03.03. 8:30 5.4° C fast wolkenlos
So, 03.03. 8:00 5.4° C leicht bewölkt
Ortszeit Relative Feuchte Sichtweite
So, 03.03. 7:00 94% 7 km
So, 03.03. 1:00 90% 13 km
Sa, 02.03. 19:00 77% 30 km
Sa, 02.03. 13:00 71% 25 km
Sa, 02.03. 7:00 91% 9 km
Sa, 02.03. 1:00 87% 16 km
Fr, 01.03. 19:00 84% 21 km
Fr, 01.03. 13:00 76% 17 km
Ortszeit Relative Feuchte Sichtweite
So, 03.03. 11:00 84% 9 km
So, 03.03. 10:50 84% -
So, 03.03. 10:40 86% -
So, 03.03. 10:30 89% 8 km
So, 03.03. 10:20 89% -
So, 03.03. 10:10 90% -
So, 03.03. 10:00 92% 6 km
So, 03.03. 9:30 94% 6 km
So, 03.03. 9:00 95% 5.0 km
So, 03.03. 8:30 97% 5.0 km
So, 03.03. 8:00 96% 6 km
Ortszeit Niederschlagsmenge Niederschlagsart
So, 03.03. 7:00 0.0 l/m2 in 12 Std. -
So, 03.03. 1:00 0.0 l/m2 in 6 Std. -
Sa, 02.03. 19:00 0.0 l/m2 in 12 Std. -
Sa, 02.03. 13:00 0.0 l/m2 in 6 Std. -
Sa, 02.03. 7:00 0.1 l/m2 in 12 Std. Regen
Sa, 02.03. 1:00 0.0 l/m2 in 6 Std. -
Fr, 01.03. 19:00 0.0 l/m2 in 12 Std. -
Fr, 01.03. 13:00 0.0 l/m2 in 6 Std. -
Ortszeit Niederschlagsmenge Niederschlagsart
So, 03.03. 11:00 0.0 l/m2 in 1 Std. -
So, 03.03. 10:50 keine Meldung -
So, 03.03. 10:40 keine Meldung -
So, 03.03. 10:30 0.0 l/m2 in 30 Min -
So, 03.03. 10:20 keine Meldung -
So, 03.03. 10:10 keine Meldung -
So, 03.03. 10:00 0.0 l/m2 in 1 Std. -
So, 03.03. 9:30 0.0 l/m2 in 30 Min -
So, 03.03. 9:00 0.0 l/m2 in 1 Std. -
So, 03.03. 8:30 0.0 l/m2 in 30 Min -
So, 03.03. 8:00 0.0 l/m2 in 1 Std. -
Ortszeit Stärke Spitze Richtung
km/h Bft. km/h Grad Sektor
So, 03.03. 7:00 11 2 22 80° O
So, 03.03. 1:00 11 2 22 80° O
Sa, 02.03. 19:00 7 2 25 90° O
Sa, 02.03. 13:00 7 2 25 130° SO
Sa, 02.03. 7:00 9 2 17 120° SO
Sa, 02.03. 1:00 7 2 20 110° O
Fr, 01.03. 19:00 7 2 22 110° O
Fr, 01.03. 13:00 7 2 22 170° S
Ortszeit Stärke Spitze Richtung
km/h Bft. km/h Grad Sektor
So, 03.03. 11:00 11 2 25 90° O
So, 03.03. 10:50 11 2 - 90° O
So, 03.03. 10:40 11 2 - 90° O
So, 03.03. 10:30 11 2 25 90° O
So, 03.03. 10:20 11 2 - 90° O
So, 03.03. 10:10 13 3 - 90° O
So, 03.03. 10:00 14 3 22 90° O
So, 03.03. 9:30 11 2 22 80° O
So, 03.03. 9:00 7 2 15 80° O
So, 03.03. 8:30 7 2 11 80° O
So, 03.03. 8:00 7 2 14 80° O
Ortszeit Untergrenze Bedeckung Gattung
total tief tief mittel hoch
So, 03.03. 7:00 6900 m 2/8 1/8 - - -
So, 03.03. 1:00 7200 m 8/8 0/8 - - -
Sa, 02.03. 19:00 6900 m 8/8 8/8 - - -
Sa, 02.03. 13:00 4800 m 8/8 8/8 - - -
Sa, 02.03. 7:00 3000 m 8/8 8/8 - - -
Sa, 02.03. 1:00 3000 m 8/8 8/8 - - -
Fr, 01.03. 19:00 3600 m 8/8 8/8 - - -
Fr, 01.03. 13:00 810 m 7/8 7/8 - - -
Ortszeit Bedeckungsgrad in Achtel und Wolkenuntergrenze
So, 03.03. 11:00 5(8100m)
So, 03.03. 10:50 5(8100m)
So, 03.03. 10:40 7
So, 03.03. 10:30 3(8100m) 7(9000m)
So, 03.03. 10:20 3(8100m) 7(9000m)
So, 03.03. 10:10 7
So, 03.03. 10:00 5(8100m) 8(8700m)
So, 03.03. 9:30 2(8100m) 6(8700m)
So, 03.03. 9:00 keine Wolken
So, 03.03. 8:30 1(8400m)
So, 03.03. 8:00 5(8400m)
Ortszeit Luftdruck NN (hPa) Tendenz (hPa in 3 Std.)
So, 03.03. 7:00 1005 0,0
So, 03.03. 1:00 1005 - 0,4
Sa, 02.03. 19:00 1005 + 0,7
Sa, 02.03. 13:00 1005 + 0,6
Sa, 02.03. 7:00 1003 - 0,2
Sa, 02.03. 1:00 1004 - 0,6
Fr, 01.03. 19:00 1005 + 0,4
Fr, 01.03. 13:00 1004 + 0,2
Ortszeit Luftdruck NN (hPa) Tendenz (hPa in 3 Std.)
So, 03.03. 11:00 1005 + 0,1
So, 03.03. 10:50 1005 keine Meldung
So, 03.03. 10:40 1005 keine Meldung
So, 03.03. 10:30 1005 + 0,2
So, 03.03. 10:20 1005 keine Meldung
So, 03.03. 10:10 1006 keine Meldung
So, 03.03. 10:00 1006 + 0,6
So, 03.03. 9:30 1006 + 0,8
So, 03.03. 9:00 1006 + 0,7
So, 03.03. 8:30 1005 + 0,4
So, 03.03. 8:00 1005 + 0,3
Ortszeit Schneehöhe (cm)
So, 03.03. 7:00 -
So, 03.03. 1:00 -
Sa, 02.03. 19:00 -
Sa, 02.03. 13:00 -
Sa, 02.03. 7:00 -
Sa, 02.03. 1:00 -
Fr, 01.03. 19:00 -
Fr, 01.03. 13:00 -
Ortszeit Schneehöhe (cm)
So, 03.03. 11:00 -
So, 03.03. 10:50 -
So, 03.03. 10:40 -
So, 03.03. 10:30 -
So, 03.03. 10:20 -
So, 03.03. 10:10 -
So, 03.03. 10:00 -
So, 03.03. 9:30 -
So, 03.03. 9:00 -
So, 03.03. 8:30 -
So, 03.03. 8:00 -
Link zu dieser Seite / Seite empfehlen

Das Wetter in ...